createdAt,value
2018-04-10T00:00:43.859Z,72.98
2018-04-10T00:03:11.242Z,72.89
2018-04-10T00:05:38.633Z,72.89
2018-04-10T00:08:06.024Z,73.06
2018-04-10T00:10:33.411Z,73.56
2018-04-10T00:13:00.791Z,73.73
2018-04-10T00:15:28.185Z,73.86
2018-04-10T00:17:55.563Z,73.78
2018-04-10T00:20:23.166Z,73.79
2018-04-10T00:22:50.547Z,73.80
2018-04-10T00:25:17.928Z,73.42
2018-04-10T00:27:45.314Z,72.93
2018-04-10T00:30:12.694Z,73.38
2018-04-10T00:32:40.094Z,73.15
2018-04-10T00:35:07.474Z,73.19
2018-04-10T00:37:34.866Z,73.23
2018-04-10T00:40:02.342Z,73.38
2018-04-10T00:42:29.741Z,73.13
2018-04-10T00:44:57.123Z,73.41
2018-04-10T00:47:24.514Z,73.84
2018-04-10T00:49:51.894Z,73.71
2018-04-10T00:52:19.289Z,73.99
2018-04-10T00:54:46.679Z,74.09
2018-04-10T00:57:14.208Z,74.22
2018-04-10T00:59:41.595Z,74.10
2018-04-10T01:02:08.983Z,73.98
2018-04-10T01:04:36.382Z,74.16
2018-04-10T01:07:03.768Z,74.19
2018-04-10T01:09:31.182Z,74.40
2018-04-10T01:11:58.570Z,74.66
2018-04-10T01:14:25.950Z,74.67
2018-04-10T01:16:53.339Z,74.82
2018-04-10T01:19:20.722Z,74.97
2018-04-10T01:21:48.114Z,75.59
2018-04-10T01:24:15.502Z,75.66
2018-04-10T01:26:42.886Z,75.41
2018-04-10T01:29:10.266Z,75.09
2018-04-10T01:31:37.662Z,74.95
2018-04-10T01:34:05.056Z,75.26
2018-04-10T01:36:32.481Z,75.19
2018-04-10T01:38:59.877Z,75.00
2018-04-10T01:41:27.254Z,75.35
2018-04-10T01:43:54.642Z,75.45
2018-04-10T01:46:22.026Z,75.37
2018-04-10T01:48:49.422Z,75.33
2018-04-10T01:51:16.811Z,75.43
2018-04-10T01:53:44.218Z,75.56
2018-04-10T01:56:11.602Z,75.84
2018-04-10T01:58:38.998Z,76.06
2018-04-10T02:01:06.382Z,76.20
2018-04-10T02:03:33.761Z,76.31
2018-04-10T02:06:01.154Z,76.52
2018-04-10T02:08:28.538Z,77.20
2018-04-10T02:10:55.927Z,77.16
2018-04-10T02:13:23.306Z,77.52
2018-04-10T02:15:50.700Z,77.70
2018-04-10T02:18:18.088Z,77.76
2018-04-10T02:20:45.478Z,77.86
2018-04-10T02:23:12.863Z,77.96
2018-04-10T02:25:40.256Z,77.79
2018-04-10T02:28:07.638Z,77.93
2018-04-10T02:30:35.031Z,77.63
2018-04-10T02:33:02.414Z,77.67
2018-04-10T02:35:29.793Z,77.53
2018-04-10T02:37:57.195Z,77.55
2018-04-10T02:40:24.580Z,78.16
2018-04-10T02:42:51.974Z,77.93
2018-04-10T02:45:19.362Z,77.98
2018-04-10T02:47:46.747Z,77.88
2018-04-10T02:50:14.126Z,77.28
2018-04-10T02:52:41.522Z,77.46
2018-04-10T02:55:08.909Z,77.51
2018-04-10T02:57:36.291Z,77.72
2018-04-10T03:00:03.678Z,78.06
2018-04-10T03:02:31.070Z,78.23
2018-04-10T03:04:58.449Z,78.28
2018-04-10T03:07:25.854Z,78.22
2018-04-10T03:09:53.314Z,78.62
2018-04-10T03:12:20.802Z,78.46
2018-04-10T03:14:48.190Z,78.63
2018-04-10T03:17:15.578Z,78.62
2018-04-10T03:19:42.972Z,78.74
2018-04-10T03:22:10.356Z,78.75
2018-04-10T03:24:37.735Z,78.85
2018-04-10T03:27:05.138Z,79.13
2018-04-10T03:29:32.514Z,78.87
2018-04-10T03:31:59.912Z,78.88
2018-04-10T03:34:27.298Z,78.73
2018-04-10T03:36:54.674Z,78.64
2018-04-10T03:39:22.062Z,78.73
2018-04-10T03:41:49.446Z,78.83
2018-04-10T03:44:16.849Z,78.95
2018-04-10T03:46:44.233Z,79.19
2018-04-10T03:49:11.619Z,79.28
2018-04-10T03:51:39.006Z,79.58
2018-04-10T03:54:06.398Z,79.38
2018-04-10T03:56:33.787Z,79.64
2018-04-10T03:59:01.176Z,79.49
2018-04-10T04:01:28.593Z,79.43
2018-04-10T04:03:55.979Z,79.56
2018-04-10T04:06:23.388Z,79.30
2018-04-10T04:08:50.771Z,79.20
2018-04-10T04:11:18.150Z,79.32
2018-04-10T04:13:45.538Z,79.31
2018-04-10T04:16:24.728Z,79.54
2018-04-10T04:19:03.968Z,79.72
2018-04-10T04:21:43.154Z,79.89
2018-04-10T04:24:10.538Z,79.91
2018-04-10T04:26:37.922Z,80.02
2018-04-10T04:29:05.311Z,80.16
2018-04-10T04:31:32.694Z,80.31
2018-04-10T04:34:00.086Z,80.45
2018-04-10T04:36:27.475Z,80.69
2018-04-10T04:38:54.867Z,80.26
2018-04-10T04:41:22.250Z,80.54
2018-04-10T04:43:49.631Z,80.86
2018-04-10T04:46:17.034Z,81.28
2018-04-10T04:48:44.410Z,81.42
2018-04-10T04:51:11.795Z,81.83
2018-04-10T04:53:39.174Z,82.16
2018-04-10T04:56:06.571Z,82.22
2018-04-10T04:58:33.955Z,82.12
2018-04-10T05:01:01.356Z,82.20
2018-04-10T05:03:28.735Z,82.15
2018-04-10T05:05:56.122Z,81.64
2018-04-10T05:08:23.551Z,81.33
2018-04-10T05:10:51.213Z,81.21
2018-04-10T05:13:18.594Z,81.20
2018-04-10T05:15:45.978Z,81.18
2018-04-10T05:18:13.362Z,81.33
2018-04-10T05:20:40.745Z,81.29
2018-04-10T05:23:08.130Z,81.14
2018-04-10T05:25:35.515Z,81.01
2018-04-10T05:28:02.903Z,80.75
2018-04-10T05:30:30.291Z,80.43
2018-04-10T05:32:57.675Z,80.64
2018-04-10T05:35:25.058Z,80.57
2018-04-10T05:37:52.447Z,80.49
2018-04-10T05:40:19.830Z,80.26
2018-04-10T05:42:47.222Z,80.04
2018-04-10T05:45:14.607Z,80.59
2018-04-10T05:47:42.001Z,80.52
2018-04-10T05:50:09.487Z,80.38
2018-04-10T05:52:37.294Z,80.02
2018-04-10T05:55:04.798Z,80.21
2018-04-10T05:57:32.458Z,79.94
2018-04-10T05:59:59.841Z,79.73
2018-04-10T06:02:27.220Z,79.46
2018-04-10T06:04:54.610Z,79.32
2018-04-10T06:07:21.986Z,79.41
2018-04-10T06:09:49.419Z,79.17
2018-04-10T06:12:16.758Z,79.05
2018-04-10T06:14:44.149Z,79.15
2018-04-10T06:17:11.531Z,78.66
2018-04-10T06:19:38.914Z,78.30
2018-04-10T06:22:06.295Z,77.92
2018-04-10T06:24:33.686Z,77.65
2018-04-10T06:27:01.098Z,77.50
2018-04-10T06:29:28.458Z,77.82
2018-04-10T06:31:55.838Z,78.14
2018-04-10T06:34:23.229Z,77.64
2018-04-10T06:36:50.615Z,77.60
2018-04-10T06:39:17.994Z,77.58
2018-04-10T06:41:45.386Z,77.36
2018-04-10T06:44:12.766Z,76.41
2018-04-10T06:46:40.152Z,76.22
2018-04-10T06:49:07.538Z,76.25
2018-04-10T06:51:34.926Z,75.82
2018-04-10T06:54:02.306Z,75.09
2018-04-10T06:56:29.695Z,75.44
2018-04-10T06:58:57.255Z,74.79
2018-04-10T07:01:24.643Z,74.74
2018-04-10T07:03:52.036Z,74.32
2018-04-10T07:06:19.428Z,74.53
2018-04-10T07:08:46.810Z,73.77
2018-04-10T07:11:14.207Z,73.44
2018-04-10T07:13:41.798Z,72.87
2018-04-10T07:16:09.190Z,72.96
2018-04-10T07:18:36.575Z,72.63
2018-04-10T07:21:03.958Z,72.40
2018-04-10T07:23:31.348Z,72.33
2018-04-10T07:25:58.730Z,71.63
2018-04-10T07:28:26.129Z,71.24
2018-04-10T07:30:53.498Z,71.92
2018-04-10T07:33:20.890Z,72.44
2018-04-10T07:35:48.287Z,72.48
2018-04-10T07:38:15.679Z,71.32
2018-04-10T07:40:43.060Z,70.39
2018-04-10T07:43:10.447Z,71.07
2018-04-10T07:45:37.830Z,71.13
2018-04-10T07:48:05.214Z,70.78
2018-04-10T07:50:32.606Z,69.74
2018-04-10T07:52:59.994Z,70.08
2018-04-10T07:55:27.665Z,70.66
2018-04-10T07:57:55.051Z,69.19
2018-04-10T08:00:22.452Z,68.21
2018-04-10T08:02:49.894Z,68.98
2018-04-10T08:05:17.276Z,66.71
2018-04-10T08:07:44.669Z,65.40
2018-04-10T08:10:12.050Z,64.86
2018-04-10T08:12:39.438Z,65.51
2018-04-10T08:15:06.823Z,65.87
2018-04-10T08:17:34.203Z,63.56
2018-04-10T08:20:01.590Z,63.88
2018-04-10T08:22:28.974Z,63.07
2018-04-10T08:24:56.367Z,62.62
2018-04-10T08:27:23.751Z,62.78
2018-04-10T08:29:51.147Z,62.77
2018-04-10T08:32:18.523Z,62.75
2018-04-10T08:34:45.906Z,62.16
2018-04-10T08:37:13.294Z,61.27
2018-04-10T08:39:40.707Z,60.38
2018-04-10T08:42:08.094Z,59.11
2018-04-10T08:44:35.680Z,57.94
2018-04-10T08:47:03.066Z,59.21
2018-04-10T08:49:30.446Z,59.76
2018-04-10T08:51:57.839Z,58.17
2018-04-10T08:54:25.229Z,58.30
2018-04-10T08:56:52.652Z,58.18
2018-04-10T08:59:20.215Z,57.15
2018-04-10T09:01:47.603Z,57.85
2018-04-10T09:04:15.002Z,56.40
2018-04-10T09:06:42.431Z,56.41
2018-04-10T09:09:09.811Z,56.91
2018-04-10T09:11:37.199Z,57.50
2018-04-10T09:14:04.585Z,56.40
2018-04-10T09:16:31.966Z,56.41
2018-04-10T09:18:59.346Z,55.37
2018-04-10T09:21:26.731Z,54.57
2018-04-10T09:23:54.098Z,54.74
2018-04-10T09:26:21.476Z,53.26
2018-04-10T09:28:48.855Z,52.79
2018-04-10T09:31:16.226Z,52.30
2018-04-10T09:33:43.606Z,51.66
2018-04-10T09:36:10.983Z,52.69
2018-04-10T09:38:38.370Z,52.07
2018-04-10T09:41:05.748Z,52.34
2018-04-10T09:43:33.155Z,52.46
2018-04-10T09:46:00.502Z,52.12
2018-04-10T09:48:27.895Z,52.35
2018-04-10T09:50:55.279Z,53.99
2018-04-10T09:53:22.667Z,53.41
2018-04-10T09:55:50.055Z,54.13
2018-04-10T09:58:17.430Z,55.14
2018-04-10T10:00:44.806Z,55.88
2018-04-10T10:03:12.188Z,55.21
2018-04-10T10:05:39.559Z,54.83
2018-04-10T10:08:06.952Z,55.26
2018-04-10T10:10:34.341Z,54.29
2018-04-10T10:13:01.734Z,55.25
2018-04-10T10:15:29.118Z,54.84
2018-04-10T10:17:56.502Z,53.44
2018-04-10T10:20:23.882Z,54.90
2018-04-10T10:22:51.266Z,54.33
2018-04-10T10:25:18.661Z,55.01
2018-04-10T10:27:46.046Z,53.84
2018-04-10T10:30:13.471Z,54.91
2018-04-10T10:32:40.854Z,53.62
2018-04-10T10:35:08.246Z,54.39
2018-04-10T10:37:35.630Z,54.57
2018-04-10T10:40:03.012Z,52.16
2018-04-10T10:42:30.402Z,53.07
2018-04-10T10:44:57.818Z,53.79
2018-04-10T10:47:25.210Z,54.74
2018-04-10T10:49:52.601Z,55.86
2018-04-10T10:52:19.981Z,54.01
2018-04-10T10:54:47.377Z,55.38
2018-04-10T10:57:14.755Z,54.78
2018-04-10T10:59:42.181Z,52.63
2018-04-10T11:02:09.590Z,53.25
2018-04-10T11:04:36.970Z,53.07
2018-04-10T11:07:04.355Z,52.77
2018-04-10T11:09:31.757Z,53.76
2018-04-10T11:11:59.126Z,53.02
2018-04-10T11:14:26.511Z,52.87
2018-04-10T11:16:53.906Z,53.74
2018-04-10T11:19:21.287Z,51.95
2018-04-10T11:21:48.670Z,52.18
2018-04-10T11:24:16.066Z,52.53
2018-04-10T11:26:43.446Z,53.98
2018-04-10T11:29:10.843Z,50.13
2018-04-10T11:31:38.232Z,49.68
2018-04-10T11:34:05.622Z,49.48
2018-04-10T11:36:32.994Z,49.18
2018-04-10T11:39:00.378Z,47.30
2018-04-10T11:41:27.758Z,48.50
2018-04-10T11:43:55.138Z,47.03
2018-04-10T11:46:22.531Z,49.01
2018-04-10T11:48:49.910Z,49.70
2018-04-10T11:51:17.302Z,49.78
2018-04-10T11:53:44.682Z,48.55
2018-04-10T11:56:12.066Z,48.87
2018-04-10T11:58:39.450Z,48.19
2018-04-10T12:01:06.826Z,48.68
2018-04-10T12:03:34.218Z,49.31
2018-04-10T12:06:01.597Z,48.04
2018-04-10T12:08:28.990Z,46.31
2018-04-10T12:10:56.375Z,46.18
2018-04-10T12:13:23.761Z,46.89
2018-04-10T12:15:51.147Z,46.23
2018-04-10T12:18:18.530Z,46.30
2018-04-10T12:20:45.915Z,45.12
2018-04-10T12:23:13.303Z,45.17
2018-04-10T12:25:40.691Z,44.66
2018-04-10T12:28:08.075Z,43.90
2018-04-10T12:30:35.502Z,44.85
2018-04-10T12:33:02.846Z,44.49
2018-04-10T12:35:30.231Z,45.07
2018-04-10T12:37:57.619Z,44.82
2018-04-10T12:40:24.999Z,43.64
2018-04-10T12:42:52.488Z,44.49
2018-04-10T12:45:19.862Z,45.69
2018-04-10T12:47:47.386Z,43.12
2018-04-10T12:50:14.767Z,44.24
2018-04-10T12:52:42.175Z,45.05
2018-04-10T12:55:09.529Z,42.82
2018-04-10T12:57:36.918Z,44.06
2018-04-10T13:00:04.306Z,43.71
2018-04-10T13:02:31.678Z,41.89
2018-04-10T13:04:59.069Z,43.16
2018-04-10T13:07:26.459Z,43.39
2018-04-10T13:09:53.846Z,42.64
2018-04-10T13:12:21.227Z,42.52
2018-04-10T13:14:48.619Z,46.05
2018-04-10T13:17:15.994Z,44.69
2018-04-10T13:19:43.762Z,44.39
2018-04-10T13:22:11.096Z,43.41
2018-04-10T13:24:44.430Z,43.77
2018-04-10T13:27:11.835Z,44.44
2018-04-10T13:29:39.186Z,41.34
2018-04-10T13:32:06.571Z,43.77
2018-04-10T13:34:33.950Z,43.61
2018-04-10T13:37:01.337Z,41.80
2018-04-10T13:39:28.715Z,41.66
2018-04-10T13:41:56.107Z,42.48
2018-04-10T13:44:23.596Z,43.20
2018-04-10T13:46:50.998Z,42.88
2018-04-10T13:49:18.418Z,42.49
2018-04-10T13:51:45.790Z,42.23
2018-04-10T13:54:13.217Z,42.38
2018-04-10T13:56:40.558Z,42.95
2018-04-10T13:59:07.947Z,43.13
2018-04-10T14:01:35.382Z,42.60
2018-04-10T14:04:02.770Z,43.21
2018-04-10T14:06:30.142Z,44.18
2018-04-10T14:08:57.522Z,44.46
2018-04-10T14:11:24.906Z,43.39
2018-04-10T14:13:52.295Z,43.35
2018-04-10T14:16:19.746Z,42.29
2018-04-10T14:18:47.168Z,42.26
2018-04-10T14:21:14.548Z,43.02
2018-04-10T14:23:41.927Z,43.78
2018-04-10T14:26:09.326Z,43.38
2018-04-10T14:28:36.714Z,42.79
2018-04-10T14:31:04.086Z,43.14
2018-04-10T14:33:31.474Z,44.15
2018-04-10T14:35:58.891Z,42.86
2018-04-10T14:38:26.275Z,42.33
2018-04-10T14:40:53.654Z,42.24
2018-04-10T14:43:21.039Z,44.18
2018-04-10T14:45:48.489Z,42.72
2018-04-10T14:48:15.895Z,44.13
2018-04-10T14:50:43.291Z,42.53
2018-04-10T14:53:10.659Z,42.21
2018-04-10T14:55:38.017Z,42.36
2018-04-10T14:58:05.394Z,42.17
2018-04-10T15:00:32.795Z,43.62
2018-04-10T15:03:00.274Z,43.74
2018-04-10T15:05:28.641Z,41.87
2018-04-10T15:08:00.439Z,42.18
2018-04-10T15:10:27.940Z,43.27
2018-04-10T15:12:55.323Z,42.69
2018-04-10T15:15:22.721Z,43.59
2018-04-10T15:17:50.108Z,43.39
2018-04-10T15:20:17.506Z,43.45
2018-04-10T15:22:44.926Z,45.00
2018-04-10T15:25:12.338Z,44.23
2018-04-10T15:27:39.713Z,44.56
2018-04-10T15:30:07.121Z,45.22
2018-04-10T15:32:34.503Z,45.06
2018-04-10T15:35:01.882Z,44.41
2018-04-10T15:37:29.267Z,43.63
2018-04-10T15:39:56.647Z,44.34
2018-04-10T15:42:24.029Z,44.35
2018-04-10T15:44:51.534Z,43.92
2018-04-10T15:47:18.899Z,43.81
2018-04-10T15:49:46.275Z,44.26
2018-04-10T15:52:13.679Z,44.65
2018-04-10T15:54:41.089Z,44.89
2018-04-10T15:57:08.475Z,45.60
2018-04-10T15:59:35.850Z,44.68
2018-04-10T16:02:03.225Z,44.56
2018-04-10T16:04:30.606Z,44.35
2018-04-10T16:06:57.986Z,46.57
2018-04-10T16:09:25.382Z,45.42
2018-04-10T16:11:52.774Z,45.27
2018-04-10T16:14:20.496Z,45.33
2018-04-10T16:16:47.871Z,45.62
2018-04-10T16:19:15.269Z,45.49
2018-04-10T16:21:42.683Z,45.16
2018-04-10T16:24:10.043Z,44.65
2018-04-10T16:26:37.461Z,44.99
2018-04-10T16:29:04.861Z,45.54
2018-04-10T16:31:32.251Z,44.99
2018-04-10T16:33:59.652Z,45.61
2018-04-10T16:36:27.046Z,45.93
2018-04-10T16:38:54.486Z,45.63
2018-04-10T16:41:21.950Z,45.76
2018-04-10T16:43:49.341Z,46.54
2018-04-10T16:46:16.719Z,47.13
2018-04-10T16:48:44.171Z,46.69
2018-04-10T16:51:11.555Z,47.02
2018-04-10T16:53:38.952Z,47.54
2018-04-10T16:56:06.330Z,47.81
2018-04-10T16:58:33.698Z,48.60
2018-04-10T17:01:01.086Z,48.27
2018-04-10T17:03:28.466Z,48.44
2018-04-10T17:05:55.919Z,49.11
2018-04-10T17:08:23.520Z,50.53
2018-04-10T17:10:50.894Z,52.13
2018-04-10T17:13:18.315Z,56.00
2018-04-10T17:15:45.738Z,57.52
2018-04-10T17:18:13.122Z,61.79
2018-04-10T17:20:40.786Z,61.67
2018-04-10T17:23:08.175Z,63.53
2018-04-10T17:25:35.634Z,67.06
2018-04-10T17:28:03.019Z,68.95
2018-04-10T17:30:30.402Z,72.34
2018-04-10T17:32:57.786Z,74.43
2018-04-10T17:35:25.178Z,73.54
2018-04-10T17:37:52.666Z,73.12
2018-04-10T17:40:20.143Z,73.51
2018-04-10T17:42:47.526Z,76.75
2018-04-10T17:45:14.987Z,78.74
2018-04-10T17:47:42.365Z,79.43
2018-04-10T17:52:32.283Z,80.52
2018-04-10T17:54:59.760Z,81.11
2018-04-10T17:57:27.202Z,80.91
2018-04-10T17:59:54.599Z,82.10
2018-04-10T18:02:22.002Z,79.31
2018-04-10T18:04:49.438Z,79.95
2018-04-10T18:07:16.859Z,80.98
2018-04-10T18:09:44.266Z,80.16
2018-04-10T18:12:11.676Z,79.99
2018-04-10T18:14:39.056Z,82.39
2018-04-10T18:17:06.443Z,82.98
2018-04-10T18:19:33.833Z,82.80
2018-04-10T18:22:01.214Z,81.87
2018-04-10T18:24:28.609Z,80.51
2018-04-10T18:26:56.010Z,80.19
2018-04-10T18:29:23.390Z,81.07
2018-04-10T18:31:50.771Z,79.98
2018-04-10T18:34:18.187Z,81.17
2018-04-10T18:36:45.566Z,82.53
2018-04-10T18:39:12.954Z,82.40
2018-04-10T18:41:40.343Z,81.75
2018-04-10T18:44:07.741Z,80.79
2018-04-10T18:46:35.125Z,81.00
2018-04-10T18:49:02.525Z,81.65
2018-04-10T18:51:29.907Z,82.56
2018-04-10T18:53:57.301Z,83.90
2018-04-10T18:56:24.698Z,84.24
2018-04-10T18:58:52.137Z,84.10
2018-04-10T19:01:20.883Z,84.62
2018-04-10T19:03:48.787Z,85.85
2018-04-10T19:06:16.270Z,87.40
2018-04-10T19:08:43.663Z,87.78
2018-04-10T19:11:11.050Z,88.57
2018-04-10T19:13:38.440Z,89.00
2018-04-10T19:16:05.826Z,89.16
2018-04-10T19:18:33.240Z,89.50
2018-04-10T19:21:00.700Z,91.33
2018-04-10T19:23:28.131Z,93.11
2018-04-10T19:25:55.545Z,93.79
2018-04-10T19:28:23.031Z,94.72
2018-04-10T19:30:50.406Z,93.92
2018-04-10T19:33:17.799Z,93.52
2018-04-10T19:35:45.192Z,93.34
2018-04-10T19:38:12.575Z,94.09
2018-04-10T19:40:39.954Z,94.19
2018-04-10T19:43:07.346Z,94.36
2018-04-10T19:45:34.730Z,94.15
2018-04-10T19:48:02.122Z,94.65
2018-04-10T19:50:29.504Z,94.67
2018-04-10T19:52:56.893Z,94.73
2018-04-10T19:55:24.279Z,95.13
2018-04-10T19:57:51.663Z,96.30
2018-04-10T20:00:19.052Z,95.68
2018-04-10T20:02:46.430Z,96.27
2018-04-10T20:05:13.841Z,97.32
2018-04-10T20:07:41.219Z,97.73
2018-04-10T20:10:08.623Z,97.86
2018-04-10T20:12:36.008Z,98.51
2018-04-10T20:15:03.391Z,98.40
2018-04-10T20:17:30.778Z,98.23
2018-04-10T20:19:58.174Z,98.17
2018-04-10T20:22:25.560Z,98.61
2018-04-10T20:24:52.952Z,98.04
2018-04-10T20:27:20.384Z,98.54
2018-04-10T20:29:47.719Z,98.58
2018-04-10T20:32:15.111Z,98.42
2018-04-10T20:34:42.502Z,98.72
2018-04-10T20:37:09.931Z,98.79
2018-04-10T20:39:37.327Z,99.10
2018-04-10T20:42:04.710Z,99.09
2018-04-10T20:44:32.103Z,98.71
2018-04-10T20:46:59.493Z,98.76
2018-04-10T20:49:26.938Z,99.09
2018-04-10T20:51:54.314Z,98.46
2018-04-10T20:54:21.699Z,98.53
2018-04-10T20:56:49.082Z,98.82
2018-04-10T20:59:16.466Z,99.24
2018-04-10T21:01:43.850Z,99.73
2018-04-10T21:04:11.242Z,100.00
2018-04-10T21:06:38.626Z,99.78
2018-04-10T21:09:06.014Z,100.00
2018-04-10T21:11:33.414Z,99.79
2018-04-10T21:14:00.802Z,100.00
2018-04-10T21:16:28.210Z,100.00
2018-04-10T21:18:55.606Z,100.00
2018-04-10T21:21:22.990Z,100.00
2018-04-10T21:23:50.387Z,99.57
2018-04-10T21:26:17.767Z,99.04
2018-04-10T21:28:45.159Z,98.50
2018-04-10T21:31:12.547Z,99.12
2018-04-10T21:33:40.003Z,98.87
2018-04-10T21:36:07.374Z,99.13
2018-04-10T21:38:34.765Z,99.45
2018-04-10T21:41:02.152Z,99.75
2018-04-10T21:43:30.987Z,99.53
2018-04-10T21:45:58.385Z,100.00
2018-04-10T21:48:25.763Z,99.96
2018-04-10T21:50:53.314Z,100.00
2018-04-10T21:53:20.702Z,100.00
2018-04-10T21:55:48.103Z,100.00
2018-04-10T21:58:15.494Z,100.00
2018-04-10T22:00:42.879Z,100.00
2018-04-10T22:03:10.282Z,100.00
2018-04-10T22:05:37.675Z,99.65
2018-04-10T22:08:05.059Z,99.69
2018-04-10T22:10:32.438Z,99.96
2018-04-10T22:12:59.832Z,100.00
2018-04-10T22:15:27.218Z,100.00
2018-04-10T22:17:54.619Z,99.13
2018-04-10T22:20:22.002Z,99.23
2018-04-10T22:22:49.390Z,98.90
2018-04-10T22:25:16.778Z,98.37
2018-04-10T22:27:44.165Z,98.65
2018-04-10T22:30:11.555Z,97.71
2018-04-10T22:32:38.907Z,96.56
2018-04-10T22:35:06.491Z,96.07
2018-04-10T22:37:33.873Z,95.31
2018-04-10T22:40:01.275Z,94.90
2018-04-10T22:42:28.660Z,95.78
2018-04-10T22:44:56.043Z,94.42
2018-04-10T22:47:23.438Z,93.18
2018-04-10T22:49:50.815Z,92.41
2018-04-10T22:52:18.211Z,93.08
2018-04-10T22:54:45.596Z,93.56
2018-04-10T22:57:13.006Z,93.01
2018-04-10T22:59:40.399Z,92.92
2018-04-10T23:02:07.791Z,93.36
2018-04-10T23:04:35.188Z,94.00
2018-04-10T23:07:02.575Z,93.51
2018-04-10T23:09:29.966Z,93.47
2018-04-10T23:11:57.355Z,92.70
2018-04-10T23:14:24.757Z,92.72
2018-04-10T23:16:52.134Z,93.49
2018-04-10T23:19:19.539Z,94.22
2018-04-10T23:21:46.919Z,94.32
2018-04-10T23:24:14.303Z,94.58
2018-04-10T23:26:41.899Z,95.93
2018-04-10T23:29:09.282Z,97.61
2018-04-10T23:31:36.667Z,97.83
2018-04-10T23:34:04.051Z,97.67
2018-04-10T23:36:31.447Z,97.74
2018-04-10T23:38:58.986Z,95.81
2018-04-10T23:41:26.374Z,94.79
2018-04-10T23:43:53.767Z,94.93
2018-04-10T23:46:21.142Z,95.12
2018-04-10T23:48:48.543Z,95.05
2018-04-10T23:51:15.927Z,94.86
2018-04-10T23:53:43.331Z,94.52
2018-04-10T23:56:10.714Z,94.45
2018-04-10T23:58:38.112Z,95.32
